sensor_id;sensor_type;location;lat;lon;timestamp;P1;durP1;ratioP1;P2;durP2;ratioP2
39822;SDS011;25499;53.958;10.970;2023-04-07T06:52:52;9.55;;;6.03;;
39822;SDS011;25499;53.958;10.970;2023-04-07T06:55:17;8.23;;;5.55;;
39822;SDS011;25499;53.958;10.970;2023-04-07T06:57:43;9.55;;;5.90;;
39822;SDS011;25499;53.958;10.970;2023-04-07T07:00:08;10.63;;;5.95;;
39822;SDS011;25499;53.958;10.970;2023-04-07T07:02:35;11.20;;;5.93;;
39822;SDS011;25499;53.958;10.970;2023-04-07T07:05:00;9.27;;;5.88;;
39822;SDS011;25499;53.958;10.970;2023-04-07T07:07:27;9.32;;;5.47;;
39822;SDS011;25499;53.958;10.970;2023-04-07T07:09:52;10.43;;;5.82;;
39822;SDS011;25499;53.958;10.970;2023-04-07T07:12:18;9.82;;;6.25;;
39822;SDS011;25499;53.958;10.970;2023-04-07T07:14:43;10.27;;;5.93;;
39822;SDS011;25499;53.958;10.970;2023-04-07T07:17:09;10.20;;;6.13;;
39822;SDS011;25499;53.958;10.970;2023-04-07T07:19:34;12.75;;;6.93;;
39822;SDS011;25499;53.958;10.970;2023-04-07T07:22:00;11.88;;;6.70;;
39822;SDS011;25499;53.958;10.970;2023-04-07T07:24:28;10.98;;;6.82;;
39822;SDS011;25499;53.958;10.970;2023-04-07T07:26:53;11.98;;;7.40;;
39822;SDS011;25499;53.958;10.970;2023-04-07T07:29:20;10.13;;;6.85;;
39822;SDS011;25499;53.958;10.970;2023-04-07T07:31:46;10.65;;;6.75;;
39822;SDS011;25499;53.958;10.970;2023-04-07T07:34:11;11.52;;;6.40;;
39822;SDS011;25499;53.958;10.970;2023-04-07T07:36:37;11.38;;;6.30;;
39822;SDS011;25499;53.958;10.970;2023-04-07T07:39:02;10.07;;;6.65;;
39822;SDS011;25499;53.958;10.970;2023-04-07T07:41:27;10.07;;;6.50;;
39822;SDS011;25499;53.958;10.970;2023-04-07T07:43:53;11.38;;;6.97;;
39822;SDS011;25499;53.958;10.970;2023-04-07T07:46:18;10.73;;;6.18;;
39822;SDS011;25499;53.958;10.970;2023-04-07T07:48:44;9.60;;;6.40;;
39822;SDS011;25499;53.958;10.970;2023-04-07T07:51:10;10.15;;;6.10;;
39822;SDS011;25499;53.958;10.970;2023-04-07T07:53:37;8.98;;;5.68;;
39822;SDS011;25499;53.958;10.970;2023-04-07T07:56:02;7.57;;;5.10;;
39822;SDS011;25499;53.958;10.970;2023-04-07T07:58:28;10.95;;;5.07;;
39822;SDS011;25499;53.958;10.970;2023-04-07T08:00:53;8.02;;;5.10;;
39822;SDS011;25499;53.958;10.970;2023-04-07T08:03:19;9.40;;;4.80;;
39822;SDS011;25499;53.958;10.970;2023-04-07T08:05:49;6.65;;;4.00;;
39822;SDS011;25499;53.958;10.970;2023-04-07T08:08:15;5.95;;;4.07;;
39822;SDS011;25499;53.958;10.970;2023-04-07T08:10:40;6.63;;;3.42;;
39822;SDS011;25499;53.958;10.970;2023-04-07T08:15:54;4.88;;;3.25;;
39822;SDS011;25499;53.958;10.970;2023-04-07T08:20:49;3.97;;;2.60;;
39822;SDS011;25499;53.958;10.970;2023-04-07T08:23:15;4.95;;;2.70;;
39822;SDS011;25499;53.958;10.970;2023-04-07T08:25:44;4.88;;;2.72;;
39822;SDS011;25499;53.958;10.970;2023-04-07T08:28:10;5.82;;;2.30;;
39822;SDS011;25499;53.958;10.970;2023-04-07T08:30:36;2.58;;;1.80;;
39822;SDS011;25499;53.958;10.970;2023-04-07T08:33:02;4.32;;;2.03;;
39822;SDS011;25499;53.958;10.970;2023-04-07T08:35:28;4.28;;;2.45;;
39822;SDS011;25499;53.958;10.970;2023-04-07T08:37:53;3.75;;;2.30;;
39822;SDS011;25499;53.958;10.970;2023-04-07T08:40:19;3.22;;;1.88;;
39822;SDS011;25499;53.958;10.970;2023-04-07T08:42:47;3.45;;;2.30;;
39822;SDS011;25499;53.958;10.970;2023-04-07T08:45:13;4.82;;;1.88;;
39822;SDS011;25499;53.958;10.970;2023-04-07T08:47:40;2.75;;;1.77;;
39822;SDS011;25499;53.958;10.970;2023-04-07T08:50:08;4.13;;;2.33;;
39822;SDS011;25499;53.958;10.970;2023-04-07T08:55:05;4.28;;;1.77;;
39822;SDS011;25499;53.958;10.970;2023-04-07T08:57:32;3.20;;;2.10;;
39822;SDS011;25499;53.958;10.970;2023-04-07T08:59:59;2.60;;;1.58;;
39822;SDS011;25499;53.958;10.970;2023-04-07T09:02:33;4.07;;;1.70;;
39822;SDS011;25499;53.958;10.970;2023-04-07T09:05:04;3.53;;;1.38;;
39822;SDS011;25499;53.958;10.970;2023-04-07T09:07:33;2.92;;;1.85;;
39822;SDS011;25499;53.958;10.970;2023-04-07T09:10:00;2.78;;;1.63;;
39822;SDS011;25499;53.958;10.970;2023-04-07T09:12:26;4.68;;;1.42;;
39822;SDS011;25499;53.958;10.970;2023-04-07T09:14:53;2.53;;;1.52;;
39822;SDS011;25499;53.958;10.970;2023-04-07T09:17:18;3.25;;;1.55;;
39822;SDS011;25499;53.958;10.970;2023-04-07T09:19:44;3.28;;;1.75;;
39822;SDS011;25499;53.958;10.970;2023-04-07T09:22:13;3.03;;;1.50;;
39822;SDS011;25499;53.958;10.970;2023-04-07T09:24:40;5.28;;;2.03;;
39822;SDS011;25499;53.958;10.970;2023-04-07T09:27:10;4.88;;;2.30;;
39822;SDS011;25499;53.958;10.970;2023-04-07T09:29:45;5.55;;;2.53;;
39822;SDS011;25499;53.958;10.970;2023-04-07T09:32:11;5.78;;;2.30;;
39822;SDS011;25499;53.958;10.970;2023-04-07T09:34:45;5.43;;;2.97;;
39822;SDS011;25499;53.958;10.970;2023-04-07T09:37:12;4.03;;;2.45;;
39822;SDS011;25499;53.958;10.970;2023-04-07T09:39:50;6.07;;;2.33;;
39822;SDS011;25499;53.958;10.970;2023-04-07T09:42:18;3.85;;;2.55;;
39822;SDS011;25499;53.958;10.970;2023-04-07T09:44:44;5.63;;;2.70;;
39822;SDS011;25499;53.958;10.970;2023-04-07T09:47:11;3.85;;;2.25;;
39822;SDS011;25499;53.958;10.970;2023-04-07T09:49:50;4.25;;;2.45;;
39822;SDS011;25499;53.958;10.970;2023-04-07T09:52:17;4.88;;;2.60;;
39822;SDS011;25499;53.958;10.970;2023-04-07T09:54:45;6.53;;;3.00;;
39822;SDS011;25499;53.958;10.970;2023-04-07T09:57:11;4.38;;;2.67;;
39822;SDS011;25499;53.958;10.970;2023-04-07T09:59:38;4.55;;;3.20;;
39822;SDS011;25499;53.958;10.970;2023-04-07T10:02:07;3.38;;;2.65;;
39822;SDS011;25499;53.958;10.970;2023-04-07T10:04:33;4.78;;;2.55;;
39822;SDS011;25499;53.958;10.970;2023-04-07T10:06:59;4.40;;;2.40;;
39822;SDS011;25499;53.958;10.970;2023-04-07T10:09:28;3.10;;;2.00;;
39822;SDS011;25499;53.958;10.970;2023-04-07T10:11:56;6.15;;;2.25;;
39822;SDS011;25499;53.958;10.970;2023-04-07T10:14:25;4.75;;;2.28;;
39822;SDS011;25499;53.958;10.970;2023-04-07T10:16:51;3.58;;;2.17;;
39822;SDS011;25499;53.958;10.970;2023-04-07T10:19:17;4.55;;;2.58;;
39822;SDS011;25499;53.958;10.970;2023-04-07T10:21:44;7.10;;;2.22;;
39822;SDS011;25499;53.958;10.970;2023-04-07T10:27:15;5.80;;;2.95;;
39822;SDS011;25499;53.958;10.970;2023-04-07T10:29:43;3.97;;;2.27;;
39822;SDS011;25499;53.958;10.970;2023-04-07T10:32:13;2.53;;;2.17;;
39822;SDS011;25499;53.958;10.970;2023-04-07T10:37:20;2.80;;;1.60;;
39822;SDS011;25499;53.958;10.970;2023-04-07T10:39:48;3.47;;;2.30;;
39822;SDS011;25499;53.958;10.970;2023-04-07T10:45:09;4.00;;;1.95;;
39822;SDS011;25499;53.958;10.970;2023-04-07T10:50:27;3.38;;;1.30;;
39822;SDS011;25499;53.958;10.970;2023-04-07T10:55:37;3.78;;;1.60;;
39822;SDS011;25499;53.958;10.970;2023-04-07T11:00:42;1.63;;;1.00;;
39822;SDS011;25499;53.958;10.970;2023-04-07T11:03:31;2.40;;;1.73;;
39822;SDS011;25499;53.958;10.970;2023-04-07T11:08:37;1.42;;;1.05;;
39822;SDS011;25499;53.958;10.970;2023-04-07T11:11:04;2.67;;;1.48;;
39822;SDS011;25499;53.958;10.970;2023-04-07T11:16:06;3.88;;;1.15;;
39822;SDS011;25499;53.958;10.970;2023-04-07T11:18:32;2.38;;;1.25;;
39822;SDS011;25499;53.958;10.970;2023-04-07T11:20:58;1.85;;;1.10;;
39822;SDS011;25499;53.958;10.970;2023-04-07T11:23:25;2.08;;;1.30;;
39822;SDS011;25499;53.958;10.970;2023-04-07T11:25:52;2.80;;;1.80;;
39822;SDS011;25499;53.958;10.970;2023-04-07T11:28:25;3.47;;;1.67;;
39822;SDS011;25499;53.958;10.970;2023-04-07T11:30:51;2.60;;;1.40;;
39822;SDS011;25499;53.958;10.970;2023-04-07T11:33:21;3.45;;;1.60;;
39822;SDS011;25499;53.958;10.970;2023-04-07T11:35:59;1.90;;;1.10;;
39822;SDS011;25499;53.958;10.970;2023-04-07T11:38:29;5.43;;;1.80;;
39822;SDS011;25499;53.958;10.970;2023-04-07T11:41:08;1.73;;;1.27;;
39822;SDS011;25499;53.958;10.970;2023-04-07T11:43:41;6.83;;;1.57;;
39822;SDS011;25499;53.958;10.970;2023-04-07T11:46:13;5.15;;;2.63;;
39822;SDS011;25499;53.958;10.970;2023-04-07T11:48:41;5.32;;;2.35;;
39822;SDS011;25499;53.958;10.970;2023-04-07T11:51:16;3.97;;;1.88;;
39822;SDS011;25499;53.958;10.970;2023-04-07T11:53:43;3.78;;;1.80;;
39822;SDS011;25499;53.958;10.970;2023-04-07T11:56:12;4.05;;;2.20;;
39822;SDS011;25499;53.958;10.970;2023-04-07T11:58:49;6.50;;;2.17;;
39822;SDS011;25499;53.958;10.970;2023-04-07T12:01:15;3.20;;;2.10;;
39822;SDS011;25499;53.958;10.970;2023-04-07T12:06:29;6.38;;;2.20;;
39822;SDS011;25499;53.958;10.970;2023-04-07T12:09:02;4.30;;;2.10;;
39822;SDS011;25499;53.958;10.970;2023-04-07T12:11:32;4.20;;;1.85;;
39822;SDS011;25499;53.958;10.970;2023-04-07T12:14:01;4.60;;;2.13;;
39822;SDS011;25499;53.958;10.970;2023-04-07T12:16:29;3.85;;;2.20;;
39822;SDS011;25499;53.958;10.970;2023-04-07T12:18:54;3.53;;;2.15;;
39822;SDS011;25499;53.958;10.970;2023-04-07T12:21:22;2.67;;;2.10;;
39822;SDS011;25499;53.958;10.970;2023-04-07T12:23:49;3.47;;;2.22;;
39822;SDS011;25499;53.958;10.970;2023-04-07T12:26:15;4.13;;;2.45;;
39822;SDS011;25499;53.958;10.970;2023-04-07T12:28:42;3.83;;;2.40;;
39822;SDS011;25499;53.958;10.970;2023-04-07T12:33:49;4.18;;;2.15;;
39822;SDS011;25499;53.958;10.970;2023-04-07T12:36:15;4.00;;;2.28;;
39822;SDS011;25499;53.958;10.970;2023-04-07T12:38:41;3.33;;;2.20;;
39822;SDS011;25499;53.958;10.970;2023-04-07T12:41:07;3.92;;;2.42;;
39822;SDS011;25499;53.958;10.970;2023-04-07T12:43:33;8.02;;;2.60;;
39822;SDS011;25499;53.958;10.970;2023-04-07T12:45:58;7.00;;;2.50;;
39822;SDS011;25499;53.958;10.970;2023-04-07T12:48:24;5.80;;;2.50;;
39822;SDS011;25499;53.958;10.970;2023-04-07T12:50:51;3.97;;;2.42;;
39822;SDS011;25499;53.958;10.970;2023-04-07T12:53:16;5.13;;;2.90;;
39822;SDS011;25499;53.958;10.970;2023-04-07T12:55:42;5.68;;;3.00;;
39822;SDS011;25499;53.958;10.970;2023-04-07T12:58:07;8.10;;;2.75;;
39822;SDS011;25499;53.958;10.970;2023-04-07T13:00:35;5.55;;;3.63;;
39822;SDS011;25499;53.958;10.970;2023-04-07T13:03:01;6.28;;;2.63;;
39822;SDS011;25499;53.958;10.970;2023-04-07T13:05:30;7.72;;;2.67;;
39822;SDS011;25499;53.958;10.970;2023-04-07T13:07:55;9.60;;;2.92;;
39822;SDS011;25499;53.958;10.970;2023-04-07T13:10:21;9.77;;;3.50;;
39822;SDS011;25499;53.958;10.970;2023-04-07T13:12:47;8.18;;;5.05;;
39822;SDS011;25499;53.958;10.970;2023-04-07T13:15:12;8.05;;;3.97;;
39822;SDS011;25499;53.958;10.970;2023-04-07T13:17:38;6.60;;;3.45;;
39822;SDS011;25499;53.958;10.970;2023-04-07T13:20:04;8.30;;;4.53;;
39822;SDS011;25499;53.958;10.970;2023-04-07T13:22:32;9.77;;;3.33;;
39822;SDS011;25499;53.958;10.970;2023-04-07T13:24:58;7.57;;;3.30;;
39822;SDS011;25499;53.958;10.970;2023-04-07T13:27:24;7.53;;;2.75;;
39822;SDS011;25499;53.958;10.970;2023-04-07T13:29:50;9.25;;;2.88;;
39822;SDS011;25499;53.958;10.970;2023-04-07T13:32:15;4.57;;;2.88;;
39822;SDS011;25499;53.958;10.970;2023-04-07T13:34:41;5.72;;;2.65;;
39822;SDS011;25499;53.958;10.970;2023-04-07T13:37:06;5.45;;;3.25;;
39822;SDS011;25499;53.958;10.970;2023-04-07T13:39:32;7.47;;;3.08;;
39822;SDS011;25499;53.958;10.970;2023-04-07T13:41:57;8.82;;;3.47;;
39822;SDS011;25499;53.958;10.970;2023-04-07T13:44:24;5.32;;;2.97;;
39822;SDS011;25499;53.958;10.970;2023-04-07T13:46:51;4.25;;;2.95;;
39822;SDS011;25499;53.958;10.970;2023-04-07T13:49:17;5.00;;;2.75;;
39822;SDS011;25499;53.958;10.970;2023-04-07T13:51:43;7.13;;;3.60;;
39822;SDS011;25499;53.958;10.970;2023-04-07T13:54:09;8.23;;;3.90;;
39822;SDS011;25499;53.958;10.970;2023-04-07T13:56:36;7.88;;;3.17;;
39822;SDS011;25499;53.958;10.970;2023-04-07T13:59:04;6.82;;;3.55;;
39822;SDS011;25499;53.958;10.970;2023-04-07T14:01:31;4.80;;;2.88;;
39822;SDS011;25499;53.958;10.970;2023-04-07T14:03:57;8.10;;;3.35;;
39822;SDS011;25499;53.958;10.970;2023-04-07T14:06:23;7.15;;;3.45;;
39822;SDS011;25499;53.958;10.970;2023-04-07T14:08:50;4.70;;;3.08;;
39822;SDS011;25499;53.958;10.970;2023-04-07T14:11:22;4.35;;;3.13;;
39822;SDS011;25499;53.958;10.970;2023-04-07T14:13:48;5.00;;;2.97;;
39822;SDS011;25499;53.958;10.970;2023-04-07T14:16:15;6.00;;;3.13;;
39822;SDS011;25499;53.958;10.970;2023-04-07T14:18:41;4.93;;;3.75;;
39822;SDS011;25499;53.958;10.970;2023-04-07T14:21:06;6.25;;;3.30;;
39822;SDS011;25499;53.958;10.970;2023-04-07T14:23:32;4.35;;;3.22;;
39822;SDS011;25499;53.958;10.970;2023-04-07T14:25:59;5.75;;;3.22;;
39822;SDS011;25499;53.958;10.970;2023-04-07T14:28:25;5.60;;;3.70;;
39822;SDS011;25499;53.958;10.970;2023-04-07T14:30:53;6.18;;;3.45;;
39822;SDS011;25499;53.958;10.970;2023-04-07T14:33:19;6.25;;;3.33;;
39822;SDS011;25499;53.958;10.970;2023-04-07T14:35:46;7.30;;;3.60;;
39822;SDS011;25499;53.958;10.970;2023-04-07T14:38:12;8.00;;;3.00;;
39822;SDS011;25499;53.958;10.970;2023-04-07T14:40:37;6.35;;;3.47;;
39822;SDS011;25499;53.958;10.970;2023-04-07T14:43:05;4.07;;;3.33;;
39822;SDS011;25499;53.958;10.970;2023-04-07T14:45:32;6.03;;;3.78;;
39822;SDS011;25499;53.958;10.970;2023-04-07T14:47:58;5.72;;;3.50;;
39822;SDS011;25499;53.958;10.970;2023-04-07T14:50:24;5.28;;;3.25;;
39822;SDS011;25499;53.958;10.970;2023-04-07T14:52:50;6.90;;;3.50;;
39822;SDS011;25499;53.958;10.970;2023-04-07T14:55:15;6.10;;;2.85;;
39822;SDS011;25499;53.958;10.970;2023-04-07T14:57:42;9.43;;;3.20;;
39822;SDS011;25499;53.958;10.970;2023-04-07T15:00:07;5.43;;;2.80;;
39822;SDS011;25499;53.958;10.970;2023-04-07T15:02:34;3.83;;;2.60;;
39822;SDS011;25499;53.958;10.970;2023-04-07T15:05:00;7.38;;;3.17;;
39822;SDS011;25499;53.958;10.970;2023-04-07T15:07:26;5.57;;;3.25;;
39822;SDS011;25499;53.958;10.970;2023-04-07T15:09:52;4.60;;;3.17;;
39822;SDS011;25499;53.958;10.970;2023-04-07T15:12:18;5.82;;;3.28;;
39822;SDS011;25499;53.958;10.970;2023-04-07T15:14:43;7.60;;;3.92;;
39822;SDS011;25499;53.958;10.970;2023-04-07T15:17:10;7.03;;;3.47;;
39822;SDS011;25499;53.958;10.970;2023-04-07T15:19:36;5.35;;;3.40;;
39822;SDS011;25499;53.958;10.970;2023-04-07T15:22:02;5.88;;;3.92;;
39822;SDS011;25499;53.958;10.970;2023-04-07T15:24:27;5.47;;;3.70;;
39822;SDS011;25499;53.958;10.970;2023-04-07T15:26:53;5.90;;;3.85;;
39822;SDS011;25499;53.958;10.970;2023-04-07T15:29:19;5.82;;;4.10;;
39822;SDS011;25499;53.958;10.970;2023-04-07T15:31:45;6.82;;;4.22;;
39822;SDS011;25499;53.958;10.970;2023-04-07T15:34:10;8.65;;;4.35;;
39822;SDS011;25499;53.958;10.970;2023-04-07T15:36:36;7.72;;;4.30;;
39822;SDS011;25499;53.958;10.970;2023-04-07T15:39:02;6.43;;;4.75;;
39822;SDS011;25499;53.958;10.970;2023-04-07T15:41:29;8.18;;;4.78;;
39822;SDS011;25499;53.958;10.970;2023-04-07T15:43:54;8.68;;;5.07;;
39822;SDS011;25499;53.958;10.970;2023-04-07T15:46:20;11.18;;;5.00;;
39822;SDS011;25499;53.958;10.970;2023-04-07T15:48:46;9.73;;;5.05;;
39822;SDS011;25499;53.958;10.970;2023-04-07T15:51:13;6.82;;;4.53;;
39822;SDS011;25499;53.958;10.970;2023-04-07T15:53:38;6.60;;;5.13;;
39822;SDS011;25499;53.958;10.970;2023-04-07T15:56:04;10.48;;;5.40;;
39822;SDS011;25499;53.958;10.970;2023-04-07T15:58:30;7.32;;;5.38;;
39822;SDS011;25499;53.958;10.970;2023-04-07T16:00:58;9.15;;;4.88;;
39822;SDS011;25499;53.958;10.970;2023-04-07T16:03:24;10.05;;;5.15;;
39822;SDS011;25499;53.958;10.970;2023-04-07T16:05:51;7.22;;;4.70;;
39822;SDS011;25499;53.958;10.970;2023-04-07T16:08:17;7.72;;;4.88;;
39822;SDS011;25499;53.958;10.970;2023-04-07T16:10:42;10.43;;;5.53;;
39822;SDS011;25499;53.958;10.970;2023-04-07T16:13:08;9.73;;;6.65;;
39822;SDS011;25499;53.958;10.970;2023-04-07T16:15:34;11.02;;;6.93;;
39822;SDS011;25499;53.958;10.970;2023-04-07T16:18:05;10.30;;;6.47;;
39822;SDS011;25499;53.958;10.970;2023-04-07T16:20:33;11.10;;;6.18;;
39822;SDS011;25499;53.958;10.970;2023-04-07T16:22:58;10.95;;;6.15;;
39822;SDS011;25499;53.958;10.970;2023-04-07T16:25:23;12.43;;;6.70;;
39822;SDS011;25499;53.958;10.970;2023-04-07T16:27:50;13.93;;;7.40;;
39822;SDS011;25499;53.958;10.970;2023-04-07T16:30:18;13.65;;;7.50;;
39822;SDS011;25499;53.958;10.970;2023-04-07T16:32:44;13.45;;;7.75;;
39822;SDS011;25499;53.958;10.970;2023-04-07T16:35:13;17.90;;;8.38;;
39822;SDS011;25499;53.958;10.970;2023-04-07T16:37:40;12.57;;;7.72;;
39822;SDS011;25499;53.958;10.970;2023-04-07T16:40:08;12.40;;;7.82;;
39822;SDS011;25499;53.958;10.970;2023-04-07T16:42:34;13.05;;;7.25;;
39822;SDS011;25499;53.958;10.970;2023-04-07T16:45:00;12.40;;;6.93;;
39822;SDS011;25499;53.958;10.970;2023-04-07T16:47:27;12.73;;;6.82;;
39822;SDS011;25499;53.958;10.970;2023-04-07T16:50:01;10.15;;;6.70;;
39822;SDS011;25499;53.958;10.970;2023-04-07T16:52:27;12.40;;;7.47;;
39822;SDS011;25499;53.958;10.970;2023-04-07T16:54:53;12.35;;;6.75;;
39822;SDS011;25499;53.958;10.970;2023-04-07T16:57:19;11.05;;;7.13;;
39822;SDS011;25499;53.958;10.970;2023-04-07T16:59:45;14.00;;;6.80;;
39822;SDS011;25499;53.958;10.970;2023-04-07T17:02:11;12.15;;;6.63;;
39822;SDS011;25499;53.958;10.970;2023-04-07T17:04:40;12.45;;;7.15;;
39822;SDS011;25499;53.958;10.970;2023-04-07T17:07:09;13.32;;;7.72;;
39822;SDS011;25499;53.958;10.970;2023-04-07T17:09:35;11.05;;;7.28;;
39822;SDS011;25499;53.958;10.970;2023-04-07T17:12:01;10.98;;;6.47;;
39822;SDS011;25499;53.958;10.970;2023-04-07T17:14:28;9.63;;;6.38;;
39822;SDS011;25499;53.958;10.970;2023-04-07T17:16:54;9.45;;;6.20;;
39822;SDS011;25499;53.958;10.970;2023-04-07T17:19:21;10.73;;;5.88;;
39822;SDS011;25499;53.958;10.970;2023-04-07T17:21:47;10.63;;;5.68;;
39822;SDS011;25499;53.958;10.970;2023-04-07T17:24:13;11.45;;;6.13;;
39822;SDS011;25499;53.958;10.970;2023-04-07T17:26:40;9.13;;;5.43;;
39822;SDS011;25499;53.958;10.970;2023-04-07T17:29:10;10.05;;;6.00;;
39822;SDS011;25499;53.958;10.970;2023-04-07T17:31:39;8.15;;;4.78;;
39822;SDS011;25499;53.958;10.970;2023-04-07T17:34:05;6.68;;;4.25;;
39822;SDS011;25499;53.958;10.970;2023-04-07T17:36:30;7.28;;;4.40;;
39822;SDS011;25499;53.958;10.970;2023-04-07T17:39:00;4.28;;;3.22;;
39822;SDS011;25499;53.958;10.970;2023-04-07T17:41:26;5.95;;;3.80;;
39822;SDS011;25499;53.958;10.970;2023-04-07T17:43:55;6.30;;;3.25;;
39822;SDS011;25499;53.958;10.970;2023-04-07T17:46:20;6.97;;;3.45;;
39822;SDS011;25499;53.958;10.970;2023-04-07T17:51:18;5.75;;;2.88;;
39822;SDS011;25499;53.958;10.970;2023-04-07T17:53:43;5.25;;;2.72;;
39822;SDS011;25499;53.958;10.970;2023-04-07T17:56:10;4.82;;;3.05;;
39822;SDS011;25499;53.958;10.970;2023-04-07T17:58:36;4.03;;;2.60;;
39822;SDS011;25499;53.958;10.970;2023-04-07T18:03:32;13.85;;;8.02;;
39822;SDS011;25499;53.958;10.970;2023-04-07T18:05:59;8.00;;;6.18;;
39822;SDS011;25499;53.958;10.970;2023-04-07T18:08:25;9.93;;;6.60;;
39822;SDS011;25499;53.958;10.970;2023-04-07T18:10:54;6.95;;;4.50;;
39822;SDS011;25499;53.958;10.970;2023-04-07T18:13:19;7.15;;;3.90;;
39822;SDS011;25499;53.958;10.970;2023-04-07T18:15:45;9.27;;;5.10;;
39822;SDS011;25499;53.958;10.970;2023-04-07T18:18:12;5.72;;;4.00;;
39822;SDS011;25499;53.958;10.970;2023-04-07T18:20:37;6.47;;;3.85;;
39822;SDS011;25499;53.958;10.970;2023-04-07T18:23:03;8.65;;;5.75;;
39822;SDS011;25499;53.958;10.970;2023-04-07T18:25:30;7.93;;;5.05;;
39822;SDS011;25499;53.958;10.970;2023-04-07T18:27:56;5.70;;;4.30;;
39822;SDS011;25499;53.958;10.970;2023-04-07T18:30:23;7.13;;;3.78;;
39822;SDS011;25499;53.958;10.970;2023-04-07T18:32:49;5.90;;;3.72;;
39822;SDS011;25499;53.958;10.970;2023-04-07T18:35:16;5.28;;;3.25;;
39822;SDS011;25499;53.958;10.970;2023-04-07T18:37:42;8.00;;;3.30;;
39822;SDS011;25499;53.958;10.970;2023-04-07T18:40:07;7.82;;;3.53;;
39822;SDS011;25499;53.958;10.970;2023-04-07T18:42:33;7.85;;;3.92;;
39822;SDS011;25499;53.958;10.970;2023-04-07T18:44:58;11.15;;;3.78;;
39822;SDS011;25499;53.958;10.970;2023-04-07T18:47:24;9.88;;;4.00;;
39822;SDS011;25499;53.958;10.970;2023-04-07T18:49:51;7.50;;;4.18;;
39822;SDS011;25499;53.958;10.970;2023-04-07T18:52:17;7.03;;;3.40;;
39822;SDS011;25499;53.958;10.970;2023-04-07T18:54:43;6.50;;;3.95;;
39822;SDS011;25499;53.958;10.970;2023-04-07T18:57:08;6.97;;;3.78;;
39822;SDS011;25499;53.958;10.970;2023-04-07T18:59:34;5.97;;;4.00;;
39822;SDS011;25499;53.958;10.970;2023-04-07T19:01:59;7.43;;;4.80;;
39822;SDS011;25499;53.958;10.970;2023-04-07T19:04:25;9.55;;;5.82;;
39822;SDS011;25499;53.958;10.970;2023-04-07T19:06:50;8.13;;;4.55;;
39822;SDS011;25499;53.958;10.970;2023-04-07T19:09:16;10.10;;;5.68;;
39822;SDS011;25499;53.958;10.970;2023-04-07T19:11:41;35.45;;;18.48;;
39822;SDS011;25499;53.958;10.970;2023-04-07T19:14:07;8.38;;;5.00;;
39822;SDS011;25499;53.958;10.970;2023-04-07T19:16:32;10.55;;;6.07;;
39822;SDS011;25499;53.958;10.970;2023-04-07T19:18:58;9.65;;;6.07;;
39822;SDS011;25499;53.958;10.970;2023-04-07T19:21:24;11.13;;;6.35;;
39822;SDS011;25499;53.958;10.970;2023-04-07T19:23:49;9.77;;;6.25;;
39822;SDS011;25499;53.958;10.970;2023-04-07T19:26:15;10.77;;;6.28;;
39822;SDS011;25499;53.958;10.970;2023-04-07T19:28:40;13.38;;;6.82;;
39822;SDS011;25499;53.958;10.970;2023-04-07T19:31:06;11.82;;;6.53;;
39822;SDS011;25499;53.958;10.970;2023-04-07T19:33:33;12.23;;;6.68;;
39822;SDS011;25499;53.958;10.970;2023-04-07T19:35:59;11.15;;;6.82;;
39822;SDS011;25499;53.958;10.970;2023-04-07T19:38:25;11.00;;;7.13;;
39822;SDS011;25499;53.958;10.970;2023-04-07T19:40:50;13.93;;;7.95;;
39822;SDS011;25499;53.958;10.970;2023-04-07T19:43:16;16.00;;;7.40;;
39822;SDS011;25499;53.958;10.970;2023-04-07T19:45:41;14.23;;;7.88;;
39822;SDS011;25499;53.958;10.970;2023-04-07T19:48:07;15.25;;;8.30;;
39822;SDS011;25499;53.958;10.970;2023-04-07T19:50:32;15.60;;;9.20;;
39822;SDS011;25499;53.958;10.970;2023-04-07T19:53:03;13.98;;;8.30;;
39822;SDS011;25499;53.958;10.970;2023-04-07T19:55:29;16.70;;;8.85;;
39822;SDS011;25499;53.958;10.970;2023-04-07T19:57:55;15.50;;;8.48;;
39822;SDS011;25499;53.958;10.970;2023-04-07T20:00:20;17.90;;;9.52;;
39822;SDS011;25499;53.958;10.970;2023-04-07T20:02:46;15.88;;;8.63;;
39822;SDS011;25499;53.958;10.970;2023-04-07T20:05:12;13.68;;;7.82;;
39822;SDS011;25499;53.958;10.970;2023-04-07T20:07:37;16.02;;;8.32;;
39822;SDS011;25499;53.958;10.970;2023-04-07T20:10:03;18.48;;;8.48;;
39822;SDS011;25499;53.958;10.970;2023-04-07T20:12:30;16.17;;;9.43;;
39822;SDS011;25499;53.958;10.970;2023-04-07T20:14:55;16.60;;;9.05;;
39822;SDS011;25499;53.958;10.970;2023-04-07T20:17:21;16.92;;;10.07;;
39822;SDS011;25499;53.958;10.970;2023-04-07T20:19:46;14.77;;;8.77;;
39822;SDS011;25499;53.958;10.970;2023-04-07T20:22:12;16.52;;;9.80;;
39822;SDS011;25499;53.958;10.970;2023-04-07T20:24:37;17.88;;;9.45;;
39822;SDS011;25499;53.958;10.970;2023-04-07T20:27:03;17.63;;;9.85;;
39822;SDS011;25499;53.958;10.970;2023-04-07T20:29:28;21.10;;;9.98;;
39822;SDS011;25499;53.958;10.970;2023-04-07T20:31:54;20.08;;;10.68;;
39822;SDS011;25499;53.958;10.970;2023-04-07T20:34:19;20.52;;;11.27;;
39822;SDS011;25499;53.958;10.970;2023-04-07T20:36:45;20.00;;;11.25;;
39822;SDS011;25499;53.958;10.970;2023-04-07T20:39:13;19.05;;;11.30;;
39822;SDS011;25499;53.958;10.970;2023-04-07T20:41:38;21.95;;;11.35;;
39822;SDS011;25499;53.958;10.970;2023-04-07T20:44:06;22.17;;;11.00;;
39822;SDS011;25499;53.958;10.970;2023-04-07T20:46:32;19.80;;;11.32;;
39822;SDS011;25499;53.958;10.970;2023-04-07T20:48:58;25.10;;;11.63;;
39822;SDS011;25499;53.958;10.970;2023-04-07T20:51:23;21.75;;;11.25;;
39822;SDS011;25499;53.958;10.970;2023-04-07T20:53:49;19.95;;;11.20;;
39822;SDS011;25499;53.958;10.970;2023-04-07T20:56:14;21.30;;;11.18;;
39822;SDS011;25499;53.958;10.970;2023-04-07T20:58:40;20.33;;;10.77;;
39822;SDS011;25499;53.958;10.970;2023-04-07T21:01:05;24.13;;;11.63;;
